sensor_id;sensor_type;location;lat;lon;timestamp;pressure;altitude;pressure_sealevel;temperature;humidity
21431;BME280;10876;49.038;10.608;2023-07-02T00:02:13;96998.72;;;18.11;100.00
21431;BME280;10876;49.038;10.608;2023-07-02T00:04:40;96993.19;;;18.07;100.00
21431;BME280;10876;49.038;10.608;2023-07-02T00:07:07;96997.56;;;18.05;100.00
21431;BME280;10876;49.038;10.608;2023-07-02T00:09:34;97007.84;;;18.08;100.00
21431;BME280;10876;49.038;10.608;2023-07-02T00:12:01;96997.53;;;18.12;100.00
21431;BME280;10876;49.038;10.608;2023-07-02T00:14:29;96999.16;;;18.06;100.00
21431;BME280;10876;49.038;10.608;2023-07-02T00:16:55;97015.38;;;18.04;100.00
21431;BME280;10876;49.038;10.608;2023-07-02T00:19:22;97019.75;;;18.01;100.00
21431;BME280;10876;49.038;10.608;2023-07-02T00:21:49;97031.97;;;18.07;100.00
21431;BME280;10876;49.038;10.608;2023-07-02T00:24:15;97037.97;;;17.95;100.00
21431;BME280;10876;49.038;10.608;2023-07-02T00:26:42;97025.38;;;17.62;100.00
21431;BME280;10876;49.038;10.608;2023-07-02T00:29:09;97012.78;;;17.43;100.00
21431;BME280;10876;49.038;10.608;2023-07-02T00:31:37;96990.66;;;17.32;100.00
21431;BME280;10876;49.038;10.608;2023-07-02T00:34:04;96979.22;;;17.23;100.00
21431;BME280;10876;49.038;10.608;2023-07-02T00:36:31;96953.53;;;17.08;100.00
21431;BME280;10876;49.038;10.608;2023-07-02T00:38:58;96939.72;;;17.04;100.00
21431;BME280;10876;49.038;10.608;2023-07-02T00:41:25;96909.69;;;17.06;100.00
21431;BME280;10876;49.038;10.608;2023-07-02T00:43:52;96893.09;;;17.06;100.00
21431;BME280;10876;49.038;10.608;2023-07-02T00:46:22;96853.16;;;17.07;100.00
21431;BME280;10876;49.038;10.608;2023-07-02T00:48:52;96808.53;;;17.05;100.00
21431;BME280;10876;49.038;10.608;2023-07-02T00:51:20;96778.09;;;17.05;100.00
21431;BME280;10876;49.038;10.608;2023-07-02T00:53:49;96726.69;;;17.08;100.00
21431;BME280;10876;49.038;10.608;2023-07-02T00:56:16;97278.41;;;17.10;100.00
21431;BME280;10876;49.038;10.608;2023-07-02T00:58:44;97274.47;;;17.11;100.00
21431;BME280;10876;49.038;10.608;2023-07-02T01:01:14;97273.66;;;17.07;100.00
21431;BME280;10876;49.038;10.608;2023-07-02T01:03:51;97300.53;;;17.10;100.00
21431;BME280;10876;49.038;10.608;2023-07-02T01:06:22;97319.13;;;17.14;100.00
21431;BME280;10876;49.038;10.608;2023-07-02T01:08:51;97357.50;;;17.19;100.00
21431;BME280;10876;49.038;10.608;2023-07-02T01:11:18;97428.22;;;17.13;100.00
21431;BME280;10876;49.038;10.608;2023-07-02T01:13:46;97436.50;;;17.05;100.00
21431;BME280;10876;49.038;10.608;2023-07-02T01:16:14;97459.38;;;17.02;100.00
21431;BME280;10876;49.038;10.608;2023-07-02T01:18:41;97466.88;;;17.02;100.00
21431;BME280;10876;49.038;10.608;2023-07-02T01:21:10;97520.69;;;17.08;100.00
21431;BME280;10876;49.038;10.608;2023-07-02T01:23:37;97550.03;;;17.20;100.00
21431;BME280;10876;49.038;10.608;2023-07-02T01:26:03;97568.28;;;17.28;100.00
21431;BME280;10876;49.038;10.608;2023-07-02T01:28:35;97581.22;;;17.17;100.00
21431;BME280;10876;49.038;10.608;2023-07-02T01:31:03;97609.28;;;17.11;100.00
21431;BME280;10876;49.038;10.608;2023-07-02T01:33:29;97634.84;;;17.01;100.00
21431;BME280;10876;49.038;10.608;2023-07-02T01:35:56;97646.72;;;17.02;100.00
21431;BME280;10876;49.038;10.608;2023-07-02T01:38:24;97667.63;;;16.99;100.00
21431;BME280;10876;49.038;10.608;2023-07-02T01:40:52;97692.53;;;16.99;100.00
21431;BME280;10876;49.038;10.608;2023-07-02T01:43:19;97699.22;;;16.95;100.00
21431;BME280;10876;49.038;10.608;2023-07-02T01:45:45;97718.44;;;16.84;100.00
21431;BME280;10876;49.038;10.608;2023-07-02T01:48:12;97755.47;;;16.76;100.00
21431;BME280;10876;49.038;10.608;2023-07-02T01:50:39;97786.19;;;16.71;100.00
21431;BME280;10876;49.038;10.608;2023-07-02T01:53:05;97781.53;;;16.75;100.00
21431;BME280;10876;49.038;10.608;2023-07-02T01:55:33;97792.59;;;16.75;100.00
21431;BME280;10876;49.038;10.608;2023-07-02T01:58:00;97794.09;;;16.69;100.00
21431;BME280;10876;49.038;10.608;2023-07-02T02:00:27;97799.63;;;16.69;100.00
21431;BME280;10876;49.038;10.608;2023-07-02T02:02:53;97803.63;;;16.71;100.00
21431;BME280;10876;49.038;10.608;2023-07-02T02:05:20;97812.13;;;16.59;100.00
21431;BME280;10876;49.038;10.608;2023-07-02T02:07:47;97829.84;;;16.54;100.00
21431;BME280;10876;49.038;10.608;2023-07-02T02:10:13;97845.13;;;16.48;100.00
21431;BME280;10876;49.038;10.608;2023-07-02T02:12:41;97845.81;;;16.41;100.00
21431;BME280;10876;49.038;10.608;2023-07-02T02:15:09;97856.44;;;16.39;100.00
21431;BME280;10876;49.038;10.608;2023-07-02T02:17:39;97864.06;;;16.46;100.00
21431;BME280;10876;49.038;10.608;2023-07-02T02:20:07;97875.44;;;16.41;100.00
21431;BME280;10876;49.038;10.608;2023-07-02T02:22:34;97879.63;;;16.31;100.00
21431;BME280;10876;49.038;10.608;2023-07-02T02:25:01;97891.34;;;16.25;100.00
21431;BME280;10876;49.038;10.608;2023-07-02T02:27:29;97914.88;;;16.15;100.00
21431;BME280;10876;49.038;10.608;2023-07-02T02:29:57;97917.09;;;16.06;100.00
21431;BME280;10876;49.038;10.608;2023-07-02T02:32:23;97916.94;;;15.98;100.00
21431;BME280;10876;49.038;10.608;2023-07-02T02:34:50;97932.56;;;15.91;100.00
21431;BME280;10876;49.038;10.608;2023-07-02T02:37:17;97928.78;;;15.99;100.00
21431;BME280;10876;49.038;10.608;2023-07-02T02:39:44;97935.03;;;15.96;100.00
21431;BME280;10876;49.038;10.608;2023-07-02T02:42:11;97938.72;;;15.81;100.00
21431;BME280;10876;49.038;10.608;2023-07-02T02:44:38;97927.78;;;15.88;100.00
21431;BME280;10876;49.038;10.608;2023-07-02T02:47:06;97943.06;;;15.82;100.00
21431;BME280;10876;49.038;10.608;2023-07-02T02:49:33;97953.69;;;15.80;100.00
21431;BME280;10876;49.038;10.608;2023-07-02T02:52:00;97949.31;;;15.79;100.00
21431;BME280;10876;49.038;10.608;2023-07-02T02:54:26;97973.25;;;15.71;100.00
21431;BME280;10876;49.038;10.608;2023-07-02T02:56:53;97968.94;;;15.73;100.00
21431;BME280;10876;49.038;10.608;2023-07-02T02:59:20;97973.66;;;15.73;100.00
21431;BME280;10876;49.038;10.608;2023-07-02T03:01:46;97984.69;;;15.73;100.00
21431;BME280;10876;49.038;10.608;2023-07-02T03:04:14;97994.66;;;15.77;100.00
21431;BME280;10876;49.038;10.608;2023-07-02T03:06:41;97990.00;;;15.82;100.00
21431;BME280;10876;49.038;10.608;2023-07-02T03:09:08;97999.09;;;15.82;100.00
21431;BME280;10876;49.038;10.608;2023-07-02T03:11:35;97999.25;;;15.89;100.00
21431;BME280;10876;49.038;10.608;2023-07-02T03:14:03;97991.63;;;15.83;100.00
21431;BME280;10876;49.038;10.608;2023-07-02T03:16:30;97993.94;;;15.81;100.00
21431;BME280;10876;49.038;10.608;2023-07-02T03:18:58;97998.50;;;15.73;100.00
21431;BME280;10876;49.038;10.608;2023-07-02T03:21:26;98014.22;;;15.69;100.00
21431;BME280;10876;49.038;10.608;2023-07-02T03:23:55;98024.72;;;15.63;100.00
21431;BME280;10876;49.038;10.608;2023-07-02T03:26:22;98025.16;;;15.65;100.00
21431;BME280;10876;49.038;10.608;2023-07-02T03:28:49;98040.91;;;15.65;100.00
21431;BME280;10876;49.038;10.608;2023-07-02T03:31:16;98045.63;;;15.64;100.00
21431;BME280;10876;49.038;10.608;2023-07-02T03:33:42;98060.16;;;15.61;100.00
21431;BME280;10876;49.038;10.608;2023-07-02T03:36:09;98039.25;;;15.60;100.00
21431;BME280;10876;49.038;10.608;2023-07-02T03:38:37;98044.91;;;15.67;100.00
21431;BME280;10876;49.038;10.608;2023-07-02T03:41:04;98048.84;;;15.66;100.00
21431;BME280;10876;49.038;10.608;2023-07-02T03:43:30;98048.75;;;15.63;100.00
21431;BME280;10876;49.038;10.608;2023-07-02T03:45:57;98053.09;;;15.80;100.00
21431;BME280;10876;49.038;10.608;2023-07-02T03:48:24;98041.63;;;15.77;100.00
21431;BME280;10876;49.038;10.608;2023-07-02T03:50:51;98047.47;;;15.76;100.00
21431;BME280;10876;49.038;10.608;2023-07-02T03:53:17;98044.66;;;15.72;100.00
21431;BME280;10876;49.038;10.608;2023-07-02T03:55:45;98039.56;;;15.74;100.00
21431;BME280;10876;49.038;10.608;2023-07-02T03:58:12;98059.63;;;15.71;100.00
21431;BME280;10876;49.038;10.608;2023-07-02T04:00:39;98069.50;;;15.72;100.00
21431;BME280;10876;49.038;10.608;2023-07-02T04:03:07;98082.06;;;15.70;100.00
21431;BME280;10876;49.038;10.608;2023-07-02T04:05:33;98101.13;;;15.59;100.00
21431;BME280;10876;49.038;10.608;2023-07-02T04:08:00;98118.91;;;15.62;100.00
21431;BME280;10876;49.038;10.608;2023-07-02T04:10:27;98144.28;;;15.67;100.00
21431;BME280;10876;49.038;10.608;2023-07-02T04:12:55;98212.28;;;15.72;100.00
21431;BME280;10876;49.038;10.608;2023-07-02T04:15:21;98239.66;;;15.77;100.00
21431;BME280;10876;49.038;10.608;2023-07-02T04:17:49;98249.59;;;15.82;100.00
21431;BME280;10876;49.038;10.608;2023-07-02T04:20:16;98251.94;;;15.80;100.00
21431;BME280;10876;49.038;10.608;2023-07-02T04:22:44;98246.56;;;15.87;100.00
21431;BME280;10876;49.038;10.608;2023-07-02T04:25:11;98240.50;;;15.97;100.00
21431;BME280;10876;49.038;10.608;2023-07-02T04:27:40;98237.22;;;15.91;100.00
21431;BME280;10876;49.038;10.608;2023-07-02T04:30:09;98225.09;;;15.96;100.00
21431;BME280;10876;49.038;10.608;2023-07-02T04:32:37;98206.34;;;16.05;100.00
21431;BME280;10876;49.038;10.608;2023-07-02T04:35:05;98191.25;;;16.18;100.00
21431;BME280;10876;49.038;10.608;2023-07-02T04:37:32;98177.44;;;16.18;100.00
21431;BME280;10876;49.038;10.608;2023-07-02T04:39:59;98158.09;;;16.18;100.00
21431;BME280;10876;49.038;10.608;2023-07-02T04:42:29;98143.09;;;16.19;100.00
21431;BME280;10876;49.038;10.608;2023-07-02T04:45:00;98120.13;;;16.15;100.00
21431;BME280;10876;49.038;10.608;2023-07-02T04:47:29;98093.69;;;16.14;100.00
21431;BME280;10876;49.038;10.608;2023-07-02T04:49:57;98078.13;;;16.06;100.00
21431;BME280;10876;49.038;10.608;2023-07-02T04:52:23;98055.41;;;16.16;100.00
21431;BME280;10876;49.038;10.608;2023-07-02T05:05:47;98021.84;;;15.95;100.00
21431;BME280;10876;49.038;10.608;2023-07-02T05:08:14;97988.97;;;16.09;100.00
21431;BME280;10876;49.038;10.608;2023-07-02T05:10:41;97983.44;;;16.09;100.00
21431;BME280;10876;49.038;10.608;2023-07-02T05:13:08;97970.94;;;15.96;100.00
21431;BME280;10876;49.038;10.608;2023-07-02T05:15:35;97962.81;;;16.03;100.00
21431;BME280;10876;49.038;10.608;2023-07-02T05:18:02;97957.75;;;15.86;100.00
21431;BME280;10876;49.038;10.608;2023-07-02T05:20:29;97942.19;;;15.97;100.00
21431;BME280;10876;49.038;10.608;2023-07-02T05:22:58;97910.47;;;15.91;100.00
21431;BME280;10876;49.038;10.608;2023-07-02T05:25:25;97892.31;;;15.90;100.00
21431;BME280;10876;49.038;10.608;2023-07-02T05:27:52;97879.97;;;15.84;100.00
21431;BME280;10876;49.038;10.608;2023-07-02T05:30:19;97851.44;;;15.76;100.00
21431;BME280;10876;49.038;10.608;2023-07-02T05:32:46;97835.97;;;15.71;100.00
21431;BME280;10876;49.038;10.608;2023-07-02T05:35:13;97809.78;;;15.85;100.00
21431;BME280;10876;49.038;10.608;2023-07-02T05:37:40;97796.84;;;15.89;100.00
21431;BME280;10876;49.038;10.608;2023-07-02T05:40:10;97766.75;;;15.84;100.00
21431;BME280;10876;49.038;10.608;2023-07-02T05:42:37;97764.19;;;15.71;100.00
21431;BME280;10876;49.038;10.608;2023-07-02T05:45:04;97749.22;;;15.72;100.00
21431;BME280;10876;49.038;10.608;2023-07-02T05:47:31;97729.47;;;15.70;100.00
21431;BME280;10876;49.038;10.608;2023-07-02T05:49:58;97721.59;;;15.72;100.00
21431;BME280;10876;49.038;10.608;2023-07-02T05:52:25;97709.34;;;15.70;100.00
21431;BME280;10876;49.038;10.608;2023-07-02T05:54:53;97684.63;;;15.77;100.00
21431;BME280;10876;49.038;10.608;2023-07-02T05:57:21;97665.03;;;15.86;100.00
21431;BME280;10876;49.038;10.608;2023-07-02T05:59:48;97662.56;;;15.81;100.00
21431;BME280;10876;49.038;10.608;2023-07-02T06:02:15;97660.88;;;15.72;100.00
21431;BME280;10876;49.038;10.608;2023-07-02T06:04:42;97665.34;;;15.81;100.00
21431;BME280;10876;49.038;10.608;2023-07-02T06:07:09;97645.63;;;15.82;100.00
21431;BME280;10876;49.038;10.608;2023-07-02T06:09:36;97639.75;;;15.84;100.00
21431;BME280;10876;49.038;10.608;2023-07-02T06:12:03;97620.72;;;15.79;100.00
21431;BME280;10876;49.038;10.608;2023-07-02T06:14:32;97594.09;;;15.93;100.00
21431;BME280;10876;49.038;10.608;2023-07-02T06:16:59;97572.06;;;15.97;100.00
21431;BME280;10876;49.038;10.608;2023-07-02T06:19:26;97565.59;;;15.86;100.00
21431;BME280;10876;49.038;10.608;2023-07-02T06:21:53;97471.53;;;16.05;100.00
21431;BME280;10876;49.038;10.608;2023-07-02T06:24:20;97418.97;;;15.98;100.00
21431;BME280;10876;49.038;10.608;2023-07-02T06:26:47;97402.06;;;16.03;100.00
21431;BME280;10876;49.038;10.608;2023-07-02T06:29:14;97390.69;;;16.08;100.00
21431;BME280;10876;49.038;10.608;2023-07-02T06:31:42;97383.69;;;16.21;100.00
21431;BME280;10876;49.038;10.608;2023-07-02T06:34:09;97389.97;;;16.18;100.00
21431;BME280;10876;49.038;10.608;2023-07-02T06:36:36;97433.84;;;16.24;100.00
21431;BME280;10876;49.038;10.608;2023-07-02T06:39:03;97457.59;;;16.28;100.00
21431;BME280;10876;49.038;10.608;2023-07-02T06:41:30;97481.72;;;16.35;100.00
21431;BME280;10876;49.038;10.608;2023-07-02T06:43:57;97475.41;;;16.34;100.00
21431;BME280;10876;49.038;10.608;2023-07-02T06:46:24;97473.75;;;16.30;100.00
21431;BME280;10876;49.038;10.608;2023-07-02T06:48:54;97470.72;;;16.42;100.00
21431;BME280;10876;49.038;10.608;2023-07-02T06:51:21;97462.09;;;16.47;100.00
21431;BME280;10876;49.038;10.608;2023-07-02T06:53:51;97452.69;;;16.59;100.00
21431;BME280;10876;49.038;10.608;2023-07-02T06:56:18;97455.63;;;16.77;100.00
21431;BME280;10876;49.038;10.608;2023-07-02T06:58:47;97480.63;;;16.87;100.00
21431;BME280;10876;49.038;10.608;2023-07-02T07:01:14;97456.28;;;17.11;100.00
21431;BME280;10876;49.038;10.608;2023-07-02T07:03:41;97464.91;;;17.02;100.00
21431;BME280;10876;49.038;10.608;2023-07-02T07:06:10;97461.81;;;17.11;100.00
21431;BME280;10876;49.038;10.608;2023-07-02T07:08:38;97440.59;;;17.37;100.00
21431;BME280;10876;49.038;10.608;2023-07-02T07:11:05;97433.91;;;17.41;100.00
21431;BME280;10876;49.038;10.608;2023-07-02T07:13:32;97443.81;;;17.42;100.00
21431;BME280;10876;49.038;10.608;2023-07-02T07:15:59;97432.78;;;17.49;100.00
21431;BME280;10876;49.038;10.608;2023-07-02T07:18:26;97406.25;;;17.41;100.00
21431;BME280;10876;49.038;10.608;2023-07-02T07:20:56;97393.28;;;17.70;100.00
21431;BME280;10876;49.038;10.608;2023-07-02T07:23:24;97379.81;;;17.65;100.00
21431;BME280;10876;49.038;10.608;2023-07-02T07:25:51;97335.97;;;17.82;100.00
21431;BME280;10876;49.038;10.608;2023-07-02T07:28:18;97345.91;;;18.15;100.00
21431;BME280;10876;49.038;10.608;2023-07-02T07:30:45;97332.44;;;18.28;100.00
21431;BME280;10876;49.038;10.608;2023-07-02T07:33:12;97280.97;;;18.05;100.00
21431;BME280;10876;49.038;10.608;2023-07-02T07:35:40;97314.25;;;18.12;100.00
21431;BME280;10876;49.038;10.608;2023-07-02T07:38:06;97317.38;;;17.89;100.00
21431;BME280;10876;49.038;10.608;2023-07-02T07:40:35;97313.44;;;18.08;100.00
21431;BME280;10876;49.038;10.608;2023-07-02T07:43:02;97326.91;;;18.13;100.00
21431;BME280;10876;49.038;10.608;2023-07-02T07:45:29;97323.72;;;18.33;100.00
21431;BME280;10876;49.038;10.608;2023-07-02T07:47:56;97357.00;;;18.29;100.00
21431;BME280;10876;49.038;10.608;2023-07-02T07:50:23;97366.50;;;18.42;100.00
21431;BME280;10876;49.038;10.608;2023-07-02T07:52:50;97387.13;;;18.34;100.00
21431;BME280;10876;49.038;10.608;2023-07-02T07:55:17;97384.72;;;18.36;100.00
21431;BME280;10876;49.038;10.608;2023-07-02T07:57:46;97376.41;;;18.58;100.00
21431;BME280;10876;49.038;10.608;2023-07-02T08:00:14;97407.72;;;18.55;100.00
21431;BME280;10876;49.038;10.608;2023-07-02T08:02:43;97421.16;;;18.67;100.00
21431;BME280;10876;49.038;10.608;2023-07-02T08:05:09;97448.88;;;18.45;100.00
21431;BME280;10876;49.038;10.608;2023-07-02T08:07:36;97480.63;;;18.66;100.00
21431;BME280;10876;49.038;10.608;2023-07-02T08:10:04;97537.25;;;18.65;100.00
21431;BME280;10876;49.038;10.608;2023-07-02T08:12:31;97648.63;;;18.71;100.00
21431;BME280;10876;49.038;10.608;2023-07-02T08:14:59;97717.94;;;18.56;100.00
21431;BME280;10876;49.038;10.608;2023-07-02T08:17:27;97739.06;;;18.75;100.00
21431;BME280;10876;49.038;10.608;2023-07-02T08:19:56;97764.38;;;18.70;100.00
21431;BME280;10876;49.038;10.608;2023-07-02T08:22:23;97786.53;;;18.63;100.00
21431;BME280;10876;49.038;10.608;2023-07-02T08:24:50;97812.78;;;18.76;100.00
21431;BME280;10876;49.038;10.608;2023-07-02T08:27:17;97835.97;;;19.09;100.00
21431;BME280;10876;49.038;10.608;2023-07-02T08:29:45;97869.84;;;18.74;100.00
21431;BME280;10876;49.038;10.608;2023-07-02T08:32:16;97868.50;;;19.12;100.00
21431;BME280;10876;49.038;10.608;2023-07-02T08:34:43;97899.25;;;18.85;100.00
21431;BME280;10876;49.038;10.608;2023-07-02T08:37:13;97934.25;;;19.01;100.00
21431;BME280;10876;49.038;10.608;2023-07-02T08:39:40;97995.56;;;18.81;100.00
21431;BME280;10876;49.038;10.608;2023-07-02T08:42:16;98031.22;;;19.27;100.00
21431;BME280;10876;49.038;10.608;2023-07-02T08:44:45;98052.75;;;19.48;100.00
21431;BME280;10876;49.038;10.608;2023-07-02T08:47:15;98078.03;;;19.80;100.00
21431;BME280;10876;49.038;10.608;2023-07-02T08:49:42;98105.84;;;19.32;100.00
21431;BME280;10876;49.038;10.608;2023-07-02T08:52:09;98095.53;;;19.36;100.00
21431;BME280;10876;49.038;10.608;2023-07-02T08:54:36;98107.25;;;19.12;100.00
21431;BME280;10876;49.038;10.608;2023-07-02T08:57:04;98110.16;;;19.74;100.00
21431;BME280;10876;49.038;10.608;2023-07-02T08:59:31;98163.41;;;19.39;100.00
21431;BME280;10876;49.038;10.608;2023-07-02T09:01:58;98207.50;;;19.41;100.00
21431;BME280;10876;49.038;10.608;2023-07-02T09:04:27;98227.91;;;19.18;100.00
21431;BME280;10876;49.038;10.608;2023-07-02T09:07:04;98235.81;;;19.57;100.00
21431;BME280;10876;49.038;10.608;2023-07-02T09:09:32;98247.56;;;19.80;100.00
21431;BME280;10876;49.038;10.608;2023-07-02T09:11:59;98331.22;;;19.68;100.00
21431;BME280;10876;49.038;10.608;2023-07-02T09:14:28;98451.09;;;19.36;100.00
21431;BME280;10876;49.038;10.608;2023-07-02T09:17:03;98500.47;;;19.50;100.00
21431;BME280;10876;49.038;10.608;2023-07-02T09:19:32;98509.34;;;19.86;100.00
21431;BME280;10876;49.038;10.608;2023-07-02T09:22:00;98524.63;;;20.03;100.00
21431;BME280;10876;49.038;10.608;2023-07-02T09:24:29;98532.25;;;20.81;100.00
21431;BME280;10876;49.038;10.608;2023-07-02T09:26:58;98660.31;;;21.22;100.00
21431;BME280;10876;49.038;10.608;2023-07-02T09:29:26;98805.78;;;20.74;100.00
21431;BME280;10876;49.038;10.608;2023-07-02T09:31:55;98804.84;;;20.63;100.00
21431;BME280;10876;49.038;10.608;2023-07-02T09:34:27;98711.53;;;20.73;100.00
21431;BME280;10876;49.038;10.608;2023-07-02T09:36:57;98582.56;;;20.61;100.00
21431;BME280;10876;49.038;10.608;2023-07-02T09:39:28;98565.84;;;21.02;100.00
21431;BME280;10876;49.038;10.608;2023-07-02T09:41:56;98612.75;;;21.41;100.00
21431;BME280;10876;49.038;10.608;2023-07-02T09:44:26;98681.41;;;21.19;100.00
21431;BME280;10876;49.038;10.608;2023-07-02T09:46:58;98730.41;;;21.61;100.00
21431;BME280;10876;49.038;10.608;2023-07-02T09:49:27;98758.00;;;22.18;100.00
21431;BME280;10876;49.038;10.608;2023-07-02T09:51:59;98793.81;;;22.16;100.00
21431;BME280;10876;49.038;10.608;2023-07-02T09:54:26;98815.50;;;22.33;100.00
21431;BME280;10876;49.038;10.608;2023-07-02T09:56:53;98821.50;;;22.35;100.00
21431;BME280;10876;49.038;10.608;2023-07-02T09:59:21;98828.38;;;22.48;100.00
21431;BME280;10876;49.038;10.608;2023-07-02T10:01:48;98834.84;;;22.60;100.00
21431;BME280;10876;49.038;10.608;2023-07-02T10:04:16;98845.91;;;22.45;100.00
21431;BME280;10876;49.038;10.608;2023-07-02T10:06:45;98867.88;;;22.51;100.00
21431;BME280;10876;49.038;10.608;2023-07-02T10:09:14;98867.78;;;21.95;100.00
21431;BME280;10876;49.038;10.608;2023-07-02T10:11:42;98890.63;;;21.71;100.00
21431;BME280;10876;49.038;10.608;2023-07-02T10:14:09;98886.38;;;22.18;100.00
21431;BME280;10876;49.038;10.608;2023-07-02T10:16:48;98892.78;;;22.25;100.00
21431;BME280;10876;49.038;10.608;2023-07-02T10:19:16;98881.03;;;22.46;100.00
21431;BME280;10876;49.038;10.608;2023-07-02T10:21:43;98900.59;;;23.02;100.00
21431;BME280;10876;49.038;10.608;2023-07-02T10:24:15;98895.81;;;23.06;100.00
21431;BME280;10876;49.038;10.608;2023-07-02T10:26:52;98894.75;;;22.69;100.00
21431;BME280;10876;49.038;10.608;2023-07-02T10:29:19;98908.19;;;22.49;100.00
21431;BME280;10876;49.038;10.608;2023-07-02T10:31:51;98915.31;;;22.47;100.00
21431;BME280;10876;49.038;10.608;2023-07-02T10:34:31;98909.94;;;22.72;100.00
21431;BME280;10876;49.038;10.608;2023-07-02T10:36:59;98909.00;;;23.09;100.00
21431;BME280;10876;49.038;10.608;2023-07-02T10:39:28;98916.16;;;22.55;100.00
21431;BME280;10876;49.038;10.608;2023-07-02T10:42:06;98924.97;;;22.57;100.00
21431;BME280;10876;49.038;10.608;2023-07-02T10:44:33;98929.59;;;22.86;100.00
21431;BME280;10876;49.038;10.608;2023-07-02T10:47:00;98921.72;;;22.96;100.00
21431;BME280;10876;49.038;10.608;2023-07-02T10:49:31;98926.59;;;22.58;100.00
21431;BME280;10876;49.038;10.608;2023-07-02T10:51:59;98915.03;;;23.14;100.00
21431;BME280;10876;49.038;10.608;2023-07-02T10:54:42;98920.63;;;22.63;100.00
21431;BME280;10876;49.038;10.608;2023-07-02T10:57:10;98924.53;;;23.03;100.00
21431;BME280;10876;49.038;10.608;2023-07-02T10:59:37;98918.97;;;23.06;100.00
21431;BME280;10876;49.038;10.608;2023-07-02T11:02:05;98928.97;;;22.56;100.00
21431;BME280;10876;49.038;10.608;2023-07-02T11:04:32;98925.81;;;23.16;100.00
21431;BME280;10876;49.038;10.608;2023-07-02T11:07:00;98923.53;;;23.39;100.00
21431;BME280;10876;49.038;10.608;2023-07-02T11:09:27;98926.03;;;23.55;100.00
21431;BME280;10876;49.038;10.608;2023-07-02T11:11:57;98931.31;;;23.75;100.00
21431;BME280;10876;49.038;10.608;2023-07-02T11:14:31;98924.41;;;23.51;100.00
21431;BME280;10876;49.038;10.608;2023-07-02T11:16:59;98918.00;;;23.47;100.00
21431;BME280;10876;49.038;10.608;2023-07-02T11:19:27;98943.09;;;23.36;100.00
21431;BME280;10876;49.038;10.608;2023-07-02T11:21:55;98942.50;;;23.02;100.00
21431;BME280;10876;49.038;10.608;2023-07-02T11:24:31;98949.19;;;22.45;100.00
21431;BME280;10876;49.038;10.608;2023-07-02T11:27:00;98944.44;;;22.98;100.00
21431;BME280;10876;49.038;10.608;2023-07-02T11:29:28;98941.84;;;22.71;100.00
21431;BME280;10876;49.038;10.608;2023-07-02T11:32:04;98925.41;;;23.17;100.00
21431;BME280;10876;49.038;10.608;2023-07-02T11:34:31;98934.78;;;23.50;100.00
21431;BME280;10876;49.038;10.608;2023-07-02T11:36:58;98928.63;;;24.28;100.00
21431;BME280;10876;49.038;10.608;2023-07-02T11:39:25;98912.22;;;24.13;100.00
21431;BME280;10876;49.038;10.608;2023-07-02T11:41:52;98926.59;;;23.93;100.00
21431;BME280;10876;49.038;10.608;2023-07-02T11:44:21;98926.59;;;23.97;100.00
21431;BME280;10876;49.038;10.608;2023-07-02T11:46:48;98939.53;;;23.43;100.00
21431;BME280;10876;49.038;10.608;2023-07-02T11:49:15;98933.72;;;23.80;100.00
21431;BME280;10876;49.038;10.608;2023-07-02T11:51:43;98936.97;;;23.93;100.00
21431;BME280;10876;49.038;10.608;2023-07-02T11:54:14;98934.06;;;23.64;100.00
21431;BME280;10876;49.038;10.608;2023-07-02T11:56:43;98934.16;;;23.89;100.00
21431;BME280;10876;49.038;10.608;2023-07-02T11:59:10;98927.41;;;24.01;100.00
21431;BME280;10876;49.038;10.608;2023-07-02T12:01:39;98916.22;;;24.08;100.00
21431;BME280;10876;49.038;10.608;2023-07-02T12:04:06;98917.28;;;23.68;100.00
21431;BME280;10876;49.038;10.608;2023-07-02T12:06:43;98913.44;;;24.22;100.00
21431;BME280;10876;49.038;10.608;2023-07-02T12:09:10;98896.25;;;24.42;100.00
21431;BME280;10876;49.038;10.608;2023-07-02T12:11:58;98894.59;;;25.09;100.00
21431;BME280;10876;49.038;10.608;2023-07-02T12:14:25;98885.44;;;24.80;100.00
21431;BME280;10876;49.038;10.608;2023-07-02T12:16:53;98877.41;;;24.89;100.00
21431;BME280;10876;49.038;10.608;2023-07-02T12:19:20;98869.84;;;24.46;100.00
21431;BME280;10876;49.038;10.608;2023-07-02T12:21:47;98873.81;;;24.99;100.00
21431;BME280;10876;49.038;10.608;2023-07-02T12:24:14;98883.44;;;24.69;100.00
21431;BME280;10876;49.038;10.608;2023-07-02T12:26:42;98871.78;;;25.03;100.00
21431;BME280;10876;49.038;10.608;2023-07-02T12:29:09;98860.25;;;24.72;100.00
21431;BME280;10876;49.038;10.608;2023-07-02T12:31:36;98869.00;;;24.03;100.00
21431;BME280;10876;49.038;10.608;2023-07-02T12:34:07;98888.50;;;23.67;100.00
21431;BME280;10876;49.038;10.608;2023-07-02T12:36:34;98881.44;;;24.23;100.00
21431;BME280;10876;49.038;10.608;2023-07-02T12:39:01;98880.69;;;24.48;100.00
21431;BME280;10876;49.038;10.608;2023-07-02T12:41:28;98874.69;;;24.53;100.00
21431;BME280;10876;49.038;10.608;2023-07-02T12:43:56;98860.56;;;25.07;100.00
21431;BME280;10876;49.038;10.608;2023-07-02T12:46:23;98858.47;;;25.32;100.00
21431;BME280;10876;49.038;10.608;2023-07-02T12:48:50;98863.44;;;24.60;100.00
21431;BME280;10876;49.038;10.608;2023-07-02T12:51:18;98869.06;;;24.67;100.00
21431;BME280;10876;49.038;10.608;2023-07-02T12:53:45;98861.03;;;24.80;100.00
21431;BME280;10876;49.038;10.608;2023-07-02T12:56:12;98880.25;;;24.39;100.00